createdAt,value
2023-02-09T00:01:16.376Z,7.85
2023-02-09T00:03:43.424Z,6.85
2023-02-09T00:06:11.671Z,7.90
2023-02-09T00:08:38.159Z,6.80
2023-02-09T00:11:12.753Z,9.98
2023-02-09T00:13:39.179Z,6.95
2023-02-09T00:16:05.714Z,7.78
2023-02-09T00:18:33.096Z,7.45
2023-02-09T00:21:00.951Z,7.75
2023-02-09T00:23:28.445Z,7.88
2023-02-09T00:25:54.873Z,7.80
2023-02-09T00:28:21.631Z,7.07
2023-02-09T00:30:48.268Z,7.82
2023-02-09T00:33:14.859Z,7.65
2023-02-09T00:35:41.699Z,7.30
2023-02-09T00:38:08.788Z,6.40
2023-02-09T00:40:35.574Z,5.55
2023-02-09T00:43:01.941Z,5.78
2023-02-09T00:45:29.260Z,5.07
2023-02-09T00:47:55.771Z,5.15
2023-02-09T00:50:22.272Z,6.20
2023-02-09T00:52:48.769Z,6.13
2023-02-09T00:55:15.190Z,5.80
2023-02-09T00:57:41.501Z,6.78
2023-02-09T01:00:08.248Z,6.32
2023-02-09T01:02:34.978Z,8.10
2023-02-09T01:05:01.421Z,8.75
2023-02-09T01:07:27.949Z,8.95
2023-02-09T01:09:54.338Z,8.32
2023-02-09T01:12:20.779Z,8.52
2023-02-09T01:14:47.234Z,8.30
2023-02-09T01:17:13.699Z,7.25
2023-02-09T01:19:40.057Z,8.32
2023-02-09T01:22:06.467Z,6.97
2023-02-09T01:24:32.829Z,5.72
2023-02-09T01:26:59.130Z,5.65
2023-02-09T01:29:25.470Z,5.28
2023-02-09T01:31:51.914Z,5.55
2023-02-09T01:34:18.409Z,6.70
2023-02-09T01:36:45.242Z,7.80
2023-02-09T01:39:13.308Z,7.57
2023-02-09T01:41:39.693Z,7.63
2023-02-09T01:44:07.458Z,8.43
2023-02-09T01:46:34.894Z,6.88
2023-02-09T01:49:01.203Z,6.50
2023-02-09T01:51:27.830Z,6.30
2023-02-09T01:53:54.379Z,6.13
2023-02-09T01:56:24.433Z,7.53
2023-02-09T01:58:50.928Z,6.72
2023-02-09T02:01:17.891Z,6.43
2023-02-09T02:03:44.947Z,5.82
2023-02-09T02:06:12.704Z,5.45
2023-02-09T02:09:02.444Z,5.05
2023-02-09T02:11:29.808Z,4.55
2023-02-09T02:13:57.277Z,3.88
2023-02-09T02:16:26.646Z,2.88
2023-02-09T02:18:55.994Z,2.22
2023-02-09T02:21:22.431Z,3.30
2023-02-09T02:24:00.035Z,3.63
2023-02-09T02:26:41.553Z,3.45
2023-02-09T02:29:23.085Z,2.13
2023-02-09T02:31:49.602Z,2.50
2023-02-09T02:34:18.991Z,1.77
2023-02-09T02:36:48.123Z,1.65
2023-02-09T02:39:14.435Z,1.30
2023-02-09T02:42:04.777Z,2.13
2023-02-09T02:44:31.848Z,1.80
2023-02-09T02:47:01.286Z,1.13
2023-02-09T02:49:33.669Z,1.50
2023-02-09T02:52:02.533Z,2.00
2023-02-09T02:54:31.675Z,2.95
2023-02-09T02:57:00.550Z,3.70
2023-02-09T02:59:29.132Z,4.63
2023-02-09T03:01:57.579Z,3.67
2023-02-09T03:04:26.297Z,4.45
2023-02-09T03:06:52.672Z,2.70
2023-02-09T03:09:19.033Z,2.80
2023-02-09T03:11:48.179Z,2.05
2023-02-09T03:14:33.251Z,1.85
2023-02-09T03:17:18.280Z,2.78
2023-02-09T03:19:52.143Z,1.83
2023-02-09T03:22:18.502Z,2.00
2023-02-09T03:24:47.942Z,1.40
2023-02-09T03:27:33.568Z,1.10
2023-02-09T03:30:01.119Z,1.23
2023-02-09T03:32:28.020Z,0.93
2023-02-09T03:34:55.415Z,1.30
2023-02-09T03:37:22.424Z,1.10
2023-02-09T03:39:48.952Z,1.27
2023-02-09T03:42:15.535Z,1.40
2023-02-09T03:44:41.887Z,1.08
2023-02-09T03:47:09.560Z,0.70
2023-02-09T03:49:39.089Z,0.90
2023-02-09T03:52:06.659Z,0.90
2023-02-09T03:54:33.536Z,0.73
2023-02-09T03:57:00.570Z,0.70
2023-02-09T03:59:27.722Z,0.80
2023-02-09T04:01:55.423Z,0.60
2023-02-09T04:04:21.967Z,1.05
2023-02-09T04:06:48.615Z,1.20
2023-02-09T04:09:15.324Z,1.02
2023-02-09T04:11:41.810Z,1.02
2023-02-09T04:14:11.238Z,1.20
2023-02-09T04:16:37.969Z,1.17
2023-02-09T04:19:04.683Z,0.63
2023-02-09T04:21:31.495Z,0.90
2023-02-09T04:23:58.038Z,0.93
2023-02-09T04:26:24.375Z,1.15
2023-02-09T04:28:50.700Z,1.10
2023-02-09T04:31:17.217Z,1.20
2023-02-09T04:33:43.612Z,0.77
2023-02-09T04:36:10.649Z,1.38
2023-02-09T04:38:37.032Z,1.70
2023-02-09T04:41:03.823Z,1.38
2023-02-09T04:43:30.623Z,1.02
2023-02-09T04:45:57.202Z,1.10
2023-02-09T04:48:24.743Z,1.27
2023-02-09T04:50:51.192Z,1.42
2023-02-09T04:53:18.063Z,1.33
2023-02-09T04:55:45.131Z,1.05
2023-02-09T04:58:31.207Z,1.13
2023-02-09T05:00:57.963Z,0.80
2023-02-09T05:03:25.925Z,0.73
2023-02-09T05:05:59.494Z,0.82
2023-02-09T05:08:25.933Z,0.80
2023-02-09T05:10:52.651Z,0.90
2023-02-09T05:13:19.717Z,0.80
2023-02-09T05:15:46.286Z,0.80
2023-02-09T05:18:13.109Z,0.88
2023-02-09T05:20:39.403Z,0.98
2023-02-09T05:23:06.098Z,0.90
2023-02-09T05:25:32.562Z,1.65
2023-02-09T05:27:58.874Z,1.48
2023-02-09T05:30:26.660Z,1.60
2023-02-09T05:32:53.584Z,1.33
2023-02-09T05:35:20.207Z,1.20
2023-02-09T05:37:46.586Z,1.40
2023-02-09T05:40:13.956Z,1.33
2023-02-09T05:42:40.754Z,1.20
2023-02-09T05:45:07.639Z,1.90
2023-02-09T05:47:34.075Z,1.92
2023-02-09T05:50:00.483Z,1.40
2023-02-09T05:52:26.876Z,1.70
2023-02-09T05:54:53.208Z,1.20
2023-02-09T05:57:19.736Z,1.10
2023-02-09T05:59:46.123Z,1.02
2023-02-09T06:02:12.601Z,1.20
2023-02-09T06:04:39.321Z,1.10
2023-02-09T06:07:05.762Z,1.23
2023-02-09T06:09:32.077Z,1.80
2023-02-09T06:11:58.511Z,3.10
2023-02-09T06:14:25.437Z,2.65
2023-02-09T06:16:51.835Z,3.33
2023-02-09T06:19:20.540Z,4.10
2023-02-09T06:21:47.096Z,5.85
2023-02-09T06:24:13.813Z,6.15
2023-02-09T06:26:40.856Z,6.43
2023-02-09T06:29:07.915Z,7.28
2023-02-09T06:31:34.712Z,5.85
2023-02-09T06:34:01.113Z,6.25
2023-02-09T06:36:27.553Z,5.97
2023-02-09T06:38:54.010Z,4.75
2023-02-09T06:41:20.309Z,4.00
2023-02-09T06:43:46.703Z,3.33
2023-02-09T06:46:13.425Z,2.75
2023-02-09T06:48:39.859Z,2.60
2023-02-09T06:51:10.348Z,4.57
2023-02-09T06:53:37.132Z,3.47
2023-02-09T06:56:03.957Z,2.70
2023-02-09T06:58:30.237Z,2.75
2023-02-09T07:01:01.131Z,2.28
2023-02-09T07:03:27.529Z,1.90
2023-02-09T07:05:53.834Z,2.00
2023-02-09T07:08:20.122Z,1.63
2023-02-09T07:10:46.690Z,1.55
2023-02-09T07:13:13.168Z,0.90
2023-02-09T07:15:39.571Z,1.10
2023-02-09T07:18:05.936Z,1.30
2023-02-09T07:20:32.385Z,1.20
2023-02-09T07:23:00.121Z,1.25
2023-02-09T07:25:27.384Z,2.38
2023-02-09T07:27:53.761Z,1.50
2023-02-09T07:30:20.080Z,3.63
2023-02-09T07:32:46.387Z,4.10
2023-02-09T07:35:12.772Z,5.18
2023-02-09T07:37:39.194Z,4.45
2023-02-09T07:40:06.024Z,4.28
2023-02-09T07:42:32.334Z,3.70
2023-02-09T07:44:58.630Z,6.35
2023-02-09T07:47:24.926Z,5.05
2023-02-09T07:49:51.309Z,7.68
2023-02-09T07:52:17.658Z,7.93
2023-02-09T07:54:43.998Z,7.65
2023-02-09T07:57:12.393Z,7.90
2023-02-09T07:59:38.728Z,7.93
2023-02-09T08:02:05.378Z,7.70
2023-02-09T08:04:32.341Z,9.23
2023-02-09T08:06:59.110Z,10.98
2023-02-09T08:09:26.068Z,11.88
2023-02-09T08:11:52.483Z,9.68
2023-02-09T08:14:27.901Z,8.02
2023-02-09T08:17:14.949Z,9.27
2023-02-09T08:19:41.851Z,7.95
2023-02-09T08:22:08.224Z,6.18
2023-02-09T08:24:34.542Z,7.32
2023-02-09T08:27:00.981Z,9.85
2023-02-09T08:29:27.563Z,8.70
2023-02-09T08:31:53.890Z,10.88
2023-02-09T08:34:20.371Z,10.00
2023-02-09T08:36:46.786Z,10.02
2023-02-09T08:39:13.063Z,9.27
2023-02-09T08:41:39.448Z,9.77
2023-02-09T08:44:05.851Z,8.32
2023-02-09T08:46:34.373Z,8.63
2023-02-09T08:49:00.791Z,7.38
2023-02-09T08:51:27.099Z,6.65
2023-02-09T08:53:53.496Z,7.55
2023-02-09T08:56:20.630Z,9.00
2023-02-09T08:58:47.169Z,8.30
2023-02-09T09:01:13.767Z,10.65
2023-02-09T09:03:42.266Z,11.73
2023-02-09T09:06:09.863Z,9.35
2023-02-09T09:08:36.940Z,11.13
2023-02-09T09:11:03.519Z,11.60
2023-02-09T09:13:29.934Z,8.80
2023-02-09T09:15:56.296Z,9.13
2023-02-09T09:18:24.186Z,8.80
2023-02-09T09:20:50.763Z,11.93
2023-02-09T09:23:17.142Z,11.07
2023-02-09T09:25:43.878Z,11.15
2023-02-09T09:28:10.467Z,10.05
2023-02-09T09:30:37.977Z,11.82
2023-02-09T09:33:04.475Z,8.50
2023-02-09T09:35:31.216Z,9.85
2023-02-09T09:37:58.629Z,9.77
2023-02-09T09:40:26.519Z,10.80
2023-02-09T09:42:54.162Z,10.05
2023-02-09T09:45:22.502Z,9.57
2023-02-09T09:47:49.290Z,9.80
2023-02-09T09:50:20.583Z,10.65
2023-02-09T09:52:52.286Z,10.07
2023-02-09T09:55:26.049Z,12.35
2023-02-09T09:57:53.330Z,11.70
2023-02-09T10:00:21.831Z,11.82
2023-02-09T10:02:48.315Z,11.35
2023-02-09T10:05:28.145Z,11.23
2023-02-09T10:08:09.845Z,11.18
2023-02-09T10:10:45.404Z,11.35
2023-02-09T10:13:18.044Z,9.52
2023-02-09T10:15:47.504Z,11.30
2023-02-09T10:18:15.554Z,12.50
2023-02-09T10:20:43.477Z,11.48
2023-02-09T10:23:20.458Z,12.73
2023-02-09T10:25:46.917Z,9.75
2023-02-09T10:28:20.940Z,10.18
2023-02-09T10:30:47.620Z,9.77
2023-02-09T10:33:15.605Z,8.82
2023-02-09T10:35:44.651Z,9.57
2023-02-09T10:38:22.912Z,8.75
2023-02-09T10:40:49.763Z,7.07
2023-02-09T10:43:30.103Z,9.63
2023-02-09T10:45:58.408Z,9.43
2023-02-09T10:48:25.792Z,10.10
2023-02-09T10:50:59.578Z,7.43
2023-02-09T10:53:25.929Z,7.28
2023-02-09T10:55:58.782Z,6.18
2023-02-09T10:58:32.614Z,6.55
2023-02-09T11:01:11.011Z,6.88
2023-02-09T11:03:38.493Z,7.50
2023-02-09T11:06:16.036Z,8.43
2023-02-09T11:08:51.283Z,5.93
2023-02-09T11:11:25.796Z,5.15
2023-02-09T11:13:52.251Z,5.22
2023-02-09T11:16:18.593Z,7.50
2023-02-09T11:18:47.251Z,10.80
2023-02-09T11:21:26.992Z,10.05
2023-02-09T11:23:53.375Z,8.35
2023-02-09T11:26:27.966Z,5.60
2023-02-09T11:29:12.524Z,4.47
2023-02-09T11:31:38.845Z,3.42
2023-02-09T11:34:23.218Z,3.22
2023-02-09T11:37:07.032Z,2.95
2023-02-09T11:39:43.196Z,4.22
2023-02-09T11:42:33.492Z,2.80
2023-02-09T11:45:02.434Z,3.63
2023-02-09T11:47:32.286Z,2.60
2023-02-09T11:50:01.896Z,2.38
2023-02-09T11:52:38.170Z,2.70
2023-02-09T11:55:11.567Z,2.15
2023-02-09T11:57:41.840Z,2.10
2023-02-09T12:00:11.234Z,1.90
2023-02-09T12:02:37.585Z,2.22
2023-02-09T12:05:04.000Z,1.70
2023-02-09T12:07:32.798Z,2.10
2023-02-09T12:10:05.853Z,2.05
2023-02-09T12:12:40.251Z,1.30
2023-02-09T12:15:13.775Z,1.30
2023-02-09T12:17:42.932Z,1.10
2023-02-09T12:20:21.128Z,1.23
2023-02-09T12:22:56.449Z,1.70
2023-02-09T12:25:41.753Z,4.82
2023-02-09T12:28:08.226Z,7.22
2023-02-09T12:30:40.793Z,6.75
2023-02-09T12:33:16.437Z,8.68
2023-02-09T12:35:43.509Z,8.40
2023-02-09T12:38:12.906Z,7.22
2023-02-09T12:40:39.236Z,5.63
2023-02-09T12:43:11.220Z,7.78
2023-02-09T12:48:09.890Z,7.78
2023-02-09T12:50:42.708Z,5.32
2023-02-09T12:53:24.482Z,4.20
2023-02-09T12:55:57.874Z,6.50
2023-02-09T12:58:54.264Z,6.35
2023-02-09T13:01:21.056Z,5.45
2023-02-09T13:03:53.598Z,6.97
2023-02-09T13:06:38.611Z,8.68
2023-02-09T13:09:08.397Z,7.05
2023-02-09T13:11:43.200Z,6.80
2023-02-09T13:14:11.653Z,7.53
2023-02-09T13:16:42.909Z,7.70
2023-02-09T13:19:15.254Z,8.60
2023-02-09T13:22:01.208Z,8.70
2023-02-09T13:24:34.097Z,6.93
2023-02-09T13:27:00.621Z,6.25
2023-02-09T13:29:28.460Z,6.43
2023-02-09T13:31:54.837Z,6.35
2023-02-09T13:34:30.539Z,5.00
2023-02-09T13:37:02.768Z,5.05
2023-02-09T13:39:32.106Z,7.53
2023-02-09T13:41:58.514Z,6.72
2023-02-09T13:44:29.227Z,5.60
2023-02-09T13:46:59.947Z,6.65
2023-02-09T13:49:28.166Z,5.45
2023-02-09T13:52:09.732Z,6.07
2023-02-09T13:54:36.285Z,5.28
2023-02-09T13:57:03.057Z,3.65
2023-02-09T13:59:29.738Z,7.18
2023-02-09T14:01:56.160Z,5.32
2023-02-09T14:04:30.099Z,5.13
2023-02-09T14:07:02.960Z,4.05
2023-02-09T14:09:39.417Z,2.83
2023-02-09T14:12:11.445Z,2.67
2023-02-09T14:17:25.909Z,6.93
2023-02-09T14:19:53.501Z,6.05
2023-02-09T14:22:27.215Z,4.90
2023-02-09T14:24:53.622Z,5.15
2023-02-09T14:27:24.273Z,6.72
2023-02-09T14:29:50.983Z,5.53
2023-02-09T14:32:33.387Z,6.38
2023-02-09T14:35:09.256Z,7.70
2023-02-09T14:37:36.880Z,9.27
2023-02-09T14:40:04.602Z,7.63
2023-02-09T14:42:31.993Z,7.20
2023-02-09T14:44:59.933Z,4.90
2023-02-09T14:47:27.562Z,6.72
2023-02-09T14:49:54.177Z,7.70
2023-02-09T14:52:23.725Z,5.60
2023-02-09T14:54:50.535Z,4.50
2023-02-09T14:57:16.847Z,4.78
2023-02-09T14:59:43.183Z,5.35
2023-02-09T15:02:18.028Z,4.78
2023-02-09T15:04:44.453Z,5.00
2023-02-09T15:07:12.968Z,5.07
2023-02-09T15:09:39.789Z,6.20
2023-02-09T15:12:07.150Z,6.95
2023-02-09T15:14:40.417Z,7.60
2023-02-09T15:17:14.677Z,7.72
2023-02-09T15:19:41.105Z,4.57
2023-02-09T15:22:08.590Z,4.00
2023-02-09T15:24:35.625Z,3.15
2023-02-09T15:27:02.105Z,2.28
2023-02-09T15:29:28.489Z,1.92
2023-02-09T15:31:55.735Z,2.33
2023-02-09T15:34:22.057Z,1.85
2023-02-09T15:36:48.475Z,1.77
2023-02-09T15:39:18.612Z,1.10
2023-02-09T15:42:03.666Z,1.23
2023-02-09T15:44:48.518Z,1.17
2023-02-09T15:47:33.589Z,0.98
2023-02-09T15:49:59.967Z,1.00
2023-02-09T15:52:27.490Z,1.10
2023-02-09T15:54:54.055Z,1.20
2023-02-09T15:57:20.461Z,1.10
2023-02-09T15:59:48.257Z,0.70
2023-02-09T16:02:15.918Z,0.60
2023-02-09T16:04:42.650Z,0.60
2023-02-09T16:07:12.722Z,0.68
2023-02-09T16:09:40.868Z,0.70
2023-02-09T16:12:10.490Z,2.28
2023-02-09T16:14:36.987Z,2.45
2023-02-09T16:17:03.596Z,2.55
2023-02-09T16:19:30.126Z,2.13
2023-02-09T16:21:56.860Z,1.23
2023-02-09T16:24:23.137Z,1.60
2023-02-09T16:26:49.567Z,1.10
2023-02-09T16:29:16.046Z,1.08
2023-02-09T16:31:42.373Z,0.80
2023-02-09T16:34:12.998Z,0.80
2023-02-09T16:36:39.366Z,1.15
2023-02-09T16:39:06.291Z,3.97
2023-02-09T16:41:49.693Z,2.40
2023-02-09T16:44:16.475Z,1.70
2023-02-09T16:46:43.246Z,1.20
2023-02-09T16:49:19.058Z,0.90
2023-02-09T16:51:45.359Z,1.15
2023-02-09T16:54:11.736Z,1.05
2023-02-09T16:56:52.621Z,1.42
2023-02-09T16:59:20.199Z,1.20
2023-02-09T17:01:48.490Z,2.00
2023-02-09T17:04:14.974Z,2.50
2023-02-09T17:06:41.373Z,3.05
2023-02-09T17:09:25.822Z,2.38
2023-02-09T17:11:52.249Z,1.90
2023-02-09T17:14:18.607Z,1.63
2023-02-09T17:16:46.127Z,1.35
2023-02-09T17:19:16.326Z,1.17
2023-02-09T17:21:43.087Z,2.38
2023-02-09T17:24:13.932Z,3.05
2023-02-09T17:26:40.717Z,2.67
2023-02-09T17:29:07.406Z,2.10
2023-02-09T17:31:47.018Z,1.67
2023-02-09T17:34:17.334Z,1.30
2023-02-09T17:36:44.898Z,1.23
2023-02-09T17:39:11.797Z,1.35
2023-02-09T17:41:43.164Z,1.20
2023-02-09T17:44:26.509Z,1.10
2023-02-09T17:46:58.311Z,0.75
2023-02-09T17:49:24.745Z,0.73
2023-02-09T17:51:52.028Z,0.80
2023-02-09T17:54:19.442Z,1.00
2023-02-09T17:56:45.980Z,1.73
2023-02-09T17:59:13.324Z,6.13
2023-02-09T18:01:41.990Z,6.70
2023-02-09T18:04:15.142Z,4.75
2023-02-09T18:06:41.555Z,3.97
2023-02-09T18:09:09.293Z,2.65
2023-02-09T18:11:40.531Z,2.28
2023-02-09T18:14:07.090Z,1.40
2023-02-09T18:16:33.532Z,1.30
2023-02-09T18:18:59.888Z,2.20
2023-02-09T18:21:26.692Z,1.55
2023-02-09T18:23:53.056Z,1.45
2023-02-09T18:26:19.524Z,1.15
2023-02-09T18:28:45.924Z,1.05
2023-02-09T18:31:15.485Z,0.90
2023-02-09T18:33:42.322Z,1.10
2023-02-09T18:36:08.782Z,0.80
2023-02-09T18:38:35.498Z,1.20
2023-02-09T18:41:01.838Z,1.17
2023-02-09T18:43:28.205Z,0.80
2023-02-09T18:45:54.594Z,1.30
2023-02-09T18:48:21.052Z,1.70
2023-02-09T18:50:47.403Z,2.00
2023-02-09T18:53:14.560Z,1.50
2023-02-09T18:55:41.029Z,1.38
2023-02-09T18:58:09.439Z,1.10
2023-02-09T19:00:36.013Z,1.50
2023-02-09T19:03:02.397Z,1.20
2023-02-09T19:05:30.166Z,1.05
2023-02-09T19:07:57.243Z,1.08
2023-02-09T19:10:23.996Z,1.10
2023-02-09T19:12:50.487Z,0.90
2023-02-09T19:15:17.695Z,0.93
2023-02-09T19:17:44.338Z,0.90
2023-02-09T19:20:18.086Z,1.02
2023-02-09T19:22:45.374Z,1.10
2023-02-09T19:25:11.698Z,1.10
2023-02-09T19:27:37.991Z,1.60
2023-02-09T19:30:04.476Z,1.67
2023-02-09T19:32:30.858Z,1.60
2023-02-09T19:34:57.285Z,1.42
2023-02-09T19:37:24.068Z,1.52
2023-02-09T19:40:00.191Z,1.50
2023-02-09T19:42:26.615Z,1.30
2023-02-09T19:44:53.564Z,1.40
2023-02-09T19:47:25.694Z,1.52
2023-02-09T19:49:56.124Z,4.53
2023-02-09T19:52:22.804Z,5.40
2023-02-09T19:54:50.130Z,5.82
2023-02-09T19:57:20.375Z,5.22
2023-02-09T19:59:46.884Z,6.53
2023-02-09T20:02:13.817Z,6.88
2023-02-09T20:04:41.131Z,8.55
2023-02-09T20:07:07.433Z,9.32
2023-02-09T20:09:34.574Z,7.00
2023-02-09T20:12:00.958Z,8.48
2023-02-09T20:14:28.560Z,7.45
2023-02-09T20:16:57.739Z,6.03
2023-02-09T20:19:24.485Z,7.93
2023-02-09T20:21:50.848Z,6.97
2023-02-09T20:24:17.574Z,6.15
2023-02-09T20:26:46.948Z,5.97
2023-02-09T20:29:14.012Z,4.70
2023-02-09T20:31:41.378Z,3.55
2023-02-09T20:34:08.664Z,3.13
2023-02-09T20:36:37.337Z,2.30
2023-02-09T20:39:07.452Z,2.13
2023-02-09T20:41:34.021Z,1.83
2023-02-09T20:44:19.217Z,1.42
2023-02-09T20:46:57.744Z,1.52
2023-02-09T20:49:26.126Z,2.22
2023-02-09T20:51:52.495Z,2.28
2023-02-09T20:54:19.080Z,3.00
2023-02-09T20:56:45.454Z,4.55
2023-02-09T20:59:13.342Z,5.45
2023-02-09T21:01:40.113Z,5.35
2023-02-09T21:04:07.357Z,5.60
2023-02-09T21:06:34.568Z,6.15
2023-02-09T21:09:00.948Z,6.35
2023-02-09T21:11:27.292Z,5.43
2023-02-09T21:13:54.901Z,4.43
2023-02-09T21:16:21.280Z,4.65
2023-02-09T21:18:47.969Z,3.95
2023-02-09T21:21:15.991Z,3.47
2023-02-09T21:23:43.312Z,3.72
2023-02-09T21:26:11.837Z,4.35
2023-02-09T21:28:38.412Z,4.28
2023-02-09T21:31:11.460Z,4.32
2023-02-09T21:33:37.806Z,5.35
2023-02-09T21:36:04.926Z,6.70
2023-02-09T21:38:31.323Z,8.88
2023-02-09T21:40:57.715Z,7.85
2023-02-09T21:43:24.165Z,7.20
2023-02-09T21:45:50.503Z,7.30
2023-02-09T21:48:16.902Z,6.15
2023-02-09T21:50:43.239Z,5.63
2023-02-09T21:53:09.571Z,5.53
2023-02-09T21:55:36.195Z,5.28
2023-02-09T21:58:02.493Z,5.05
2023-02-09T22:00:30.798Z,4.75
2023-02-09T22:02:57.264Z,4.18
2023-02-09T22:05:23.889Z,4.45
2023-02-09T22:07:50.291Z,5.68
2023-02-09T22:10:20.231Z,6.80
2023-02-09T22:12:46.807Z,4.97
2023-02-09T22:15:13.225Z,4.30
2023-02-09T22:17:39.850Z,3.83
2023-02-09T22:20:06.452Z,3.33
2023-02-09T22:22:32.812Z,5.07
2023-02-09T22:24:59.183Z,4.15
2023-02-09T22:27:25.898Z,5.13
2023-02-09T22:29:52.176Z,4.13
2023-02-09T22:32:20.432Z,6.03
2023-02-09T22:34:46.753Z,4.13
2023-02-09T22:37:13.237Z,4.35
2023-02-09T22:39:39.546Z,5.05
2023-02-09T22:42:05.979Z,5.38
2023-02-09T22:44:33.459Z,4.82
2023-02-09T22:46:59.820Z,6.22
2023-02-09T22:49:26.245Z,5.85
2023-02-09T22:51:52.642Z,5.00
2023-02-09T22:54:19.856Z,3.92
2023-02-09T22:56:46.570Z,5.22
2023-02-09T22:59:13.929Z,6.85
2023-02-09T23:01:40.510Z,5.13
2023-02-09T23:04:07.011Z,5.50
2023-02-09T23:06:33.475Z,8.27
2023-02-09T23:09:01.236Z,5.85
2023-02-09T23:11:28.752Z,5.93
2023-02-09T23:14:08.412Z,6.13
2023-02-09T23:16:36.242Z,6.95
2023-02-09T23:19:04.138Z,6.85
2023-02-09T23:21:37.823Z,7.68
2023-02-09T23:24:04.713Z,8.85
2023-02-09T23:26:31.312Z,8.82
2023-02-09T23:28:59.432Z,8.50
2023-02-09T23:31:26.774Z,7.53
2023-02-09T23:33:53.262Z,5.78
2023-02-09T23:36:21.591Z,4.50
2023-02-09T23:38:52.060Z,5.40
2023-02-09T23:41:19.644Z,7.10
2023-02-09T23:43:46.466Z,4.40
2023-02-09T23:46:14.575Z,3.58
2023-02-09T23:48:41.072Z,4.20
2023-02-09T23:51:08.689Z,2.90
2023-02-09T23:53:35.385Z,2.90
2023-02-09T23:56:04.991Z,2.30
2023-02-09T23:58:38.229Z,1.95
